createdAt,value
2019-05-01T00:01:29.257Z,51.23
2019-05-01T00:04:11.438Z,49.03
2019-05-01T00:06:44.464Z,45.23
2019-05-01T00:09:32.771Z,45.37
2019-05-01T00:12:01.295Z,47.27
2019-05-01T00:14:30.306Z,45.73
2019-05-01T00:17:18.972Z,41.83
2019-05-01T00:19:47.572Z,43.63
2019-05-01T00:22:16.010Z,47.10
2019-05-01T00:24:44.529Z,42.50
2019-05-01T00:27:13.141Z,40.93
2019-05-01T00:29:41.675Z,41.13
2019-05-01T00:32:10.190Z,39.57
2019-05-01T00:34:38.718Z,38.33
2019-05-01T00:37:07.181Z,37.33
2019-05-01T00:39:35.694Z,40.70
2019-05-01T00:42:04.503Z,41.53
2019-05-01T00:44:32.959Z,38.70
2019-05-01T00:47:01.463Z,38.80
2019-05-01T00:49:29.966Z,37.77
2019-05-01T00:51:58.464Z,36.30
2019-05-01T00:54:28.463Z,38.57
2019-05-01T00:57:07.447Z,38.50
2019-05-01T00:59:54.051Z,36.90
2019-05-01T01:02:24.161Z,36.57
2019-05-01T01:04:52.623Z,37.67
2019-05-01T01:07:21.220Z,40.07
2019-05-01T01:09:49.764Z,38.43
2019-05-01T01:12:18.368Z,38.23
2019-05-01T01:14:46.869Z,42.47
2019-05-01T01:17:15.322Z,37.30
2019-05-01T01:19:43.778Z,42.27
2019-05-01T01:22:12.289Z,40.53
2019-05-01T01:24:40.819Z,39.73
2019-05-01T01:27:09.351Z,37.40
2019-05-01T01:29:37.859Z,38.57
2019-05-01T01:32:06.398Z,37.47
2019-05-01T01:34:35.352Z,42.63
2019-05-01T01:37:04.136Z,45.07
2019-05-01T01:39:32.588Z,41.10
2019-05-01T01:42:01.204Z,40.30
2019-05-01T01:47:30.799Z,41.37
2019-05-01T01:49:59.487Z,39.13
2019-05-01T01:52:30.527Z,39.87
2019-05-01T01:54:59.012Z,41.30
2019-05-01T01:57:27.804Z,43.63
2019-05-01T01:59:56.397Z,41.97
2019-05-01T02:02:26.494Z,43.60
2019-05-01T02:04:59.835Z,42.50
2019-05-01T02:07:28.356Z,42.80
2019-05-01T02:09:56.966Z,44.47
2019-05-01T02:12:25.463Z,43.90
2019-05-01T02:14:53.924Z,41.07
2019-05-01T02:17:22.379Z,39.60
2019-05-01T02:19:50.930Z,46.13
2019-05-01T02:22:19.466Z,41.43
2019-05-01T02:24:47.928Z,42.07
2019-05-01T02:27:18.504Z,42.90
2019-05-01T02:29:52.077Z,42.50
2019-05-01T02:32:23.684Z,39.20
2019-05-01T02:34:54.713Z,42.17
2019-05-01T02:37:25.291Z,44.10
2019-05-01T02:39:55.446Z,43.13
2019-05-01T02:42:27.046Z,41.17
2019-05-01T02:44:58.519Z,46.20
2019-05-01T02:47:30.160Z,51.27
2019-05-01T02:50:04.479Z,46.80
2019-05-01T02:52:35.978Z,48.67
2019-05-01T02:55:07.486Z,42.33
2019-05-01T02:57:39.486Z,42.37
2019-05-01T03:00:08.939Z,47.77
2019-05-01T03:02:38.956Z,44.43
2019-05-01T03:05:08.489Z,42.47
2019-05-01T03:07:39.248Z,48.27
2019-05-01T03:10:09.909Z,47.47
2019-05-01T03:12:41.938Z,42.07
2019-05-01T03:15:11.239Z,50.57
2019-05-01T03:17:43.182Z,48.23
2019-05-01T03:20:24.360Z,42.40
2019-05-01T03:23:11.893Z,42.30
2019-05-01T03:25:40.545Z,42.73
2019-05-01T03:28:09.450Z,46.07
2019-05-01T03:30:38.057Z,47.57
2019-05-01T03:33:06.775Z,45.13
2019-05-01T03:35:35.568Z,48.13
2019-05-01T03:38:04.563Z,39.77
2019-05-01T03:40:33.222Z,48.13
2019-05-01T03:43:02.003Z,46.87
2019-05-01T03:45:33.981Z,46.77
2019-05-01T03:48:01.214Z,43.97
2019-05-01T03:50:29.913Z,41.50
2019-05-01T03:52:58.372Z,45.67
2019-05-01T03:55:27.167Z,43.67
2019-05-01T03:57:56.301Z,44.40
2019-05-01T04:00:35.658Z,45.17
2019-05-01T04:03:17.715Z,44.40
2019-05-01T04:05:46.731Z,40.23
2019-05-01T04:08:15.491Z,40.37
2019-05-01T04:10:44.113Z,39.60
2019-05-01T04:13:13.000Z,38.50
2019-05-01T04:15:42.019Z,41.10
2019-05-01T04:18:11.307Z,39.03
2019-05-01T04:20:40.617Z,41.73
2019-05-01T04:23:09.288Z,38.17
2019-05-01T04:25:38.020Z,37.90
2019-05-01T04:28:27.152Z,41.63
2019-05-01T04:31:14.415Z,38.60
2019-05-01T04:33:44.632Z,39.90
2019-05-01T04:36:27.416Z,36.87
2019-05-01T04:38:56.958Z,37.37
2019-05-01T04:41:26.701Z,39.43
2019-05-01T04:43:55.615Z,37.83
2019-05-01T04:46:24.490Z,37.40
2019-05-01T04:48:53.131Z,37.60
2019-05-01T04:51:21.933Z,41.20
2019-05-01T04:53:51.293Z,38.27
2019-05-01T04:56:20.191Z,36.63
2019-05-01T04:58:48.994Z,37.43
2019-05-01T05:01:17.549Z,37.73
2019-05-01T05:03:46.854Z,38.17
2019-05-01T05:06:15.447Z,41.10
2019-05-01T05:08:44.292Z,37.40
2019-05-01T05:11:20.971Z,37.67
2019-05-01T05:14:08.262Z,35.93
2019-05-01T05:16:44.803Z,39.50
2019-05-01T05:19:13.850Z,38.87
2019-05-01T05:21:42.941Z,38.10
2019-05-01T05:24:11.742Z,36.13
2019-05-01T05:26:42.086Z,41.00
2019-05-01T05:29:11.451Z,38.63
2019-05-01T05:31:42.215Z,38.77
2019-05-01T05:34:13.469Z,39.10
2019-05-01T05:36:44.461Z,39.43
2019-05-01T05:39:16.312Z,42.40
2019-05-01T05:41:46.171Z,44.50
2019-05-01T05:44:15.064Z,44.43
2019-05-01T05:46:43.526Z,45.27
2019-05-01T05:49:12.271Z,45.77
2019-05-01T05:51:43.890Z,42.93
2019-05-01T05:54:31.741Z,41.73
2019-05-01T05:57:12.716Z,38.60
2019-05-01T05:59:48.560Z,43.87
2019-05-01T06:02:24.455Z,38.63
2019-05-01T06:05:06.035Z,39.13
2019-05-01T06:07:41.875Z,37.63
2019-05-01T06:10:25.360Z,38.40
2019-05-01T06:12:57.967Z,37.80
2019-05-01T06:15:29.011Z,39.43
2019-05-01T06:18:04.026Z,38.00
2019-05-01T06:20:40.287Z,41.37
2019-05-01T06:23:11.323Z,36.30
2019-05-01T06:25:43.530Z,35.70
2019-05-01T06:28:12.534Z,48.40
2019-05-01T06:30:42.129Z,40.50
2019-05-01T06:33:11.588Z,35.37
2019-05-01T06:35:40.132Z,32.77
2019-05-01T06:38:14.659Z,33.73
2019-05-01T06:40:44.738Z,37.80
2019-05-01T06:43:38.787Z,34.97
2019-05-01T06:46:11.971Z,37.47
2019-05-01T06:49:06.878Z,34.60
2019-05-01T06:51:37.304Z,36.47
2019-05-01T06:54:11.220Z,33.73
2019-05-01T06:56:40.355Z,36.03
2019-05-01T06:59:09.976Z,32.67
2019-05-01T07:01:39.599Z,32.27
2019-05-01T07:04:08.304Z,34.53
2019-05-01T07:06:37.304Z,31.37
2019-05-01T07:09:11.718Z,29.80
2019-05-01T07:11:42.365Z,29.10
2019-05-01T07:14:11.249Z,33.90
2019-05-01T07:16:40.926Z,31.03
2019-05-01T07:19:10.210Z,28.43
2019-05-01T07:21:39.042Z,29.60
2019-05-01T07:24:07.610Z,28.07
2019-05-01T07:26:36.535Z,30.27
2019-05-01T07:29:09.873Z,30.20
2019-05-01T07:31:39.879Z,27.00
2019-05-01T07:34:16.289Z,30.90
2019-05-01T07:36:39.004Z,26.43
2019-05-01T07:39:09.892Z,28.17
2019-05-01T07:41:39.007Z,26.90
2019-05-01T07:44:24.513Z,24.40
2019-05-01T07:47:00.763Z,24.03
2019-05-01T07:49:52.856Z,23.67
2019-05-01T07:52:19.976Z,21.37
2019-05-01T07:54:49.198Z,25.03
2019-05-01T07:57:18.301Z,22.77
2019-05-01T07:59:47.109Z,19.70
2019-05-01T08:02:15.627Z,22.43
2019-05-01T08:04:44.285Z,19.93
2019-05-01T08:07:12.744Z,20.97
2019-05-01T08:09:41.311Z,22.07
2019-05-01T08:12:09.830Z,22.07
2019-05-01T08:14:38.358Z,22.07
2019-05-01T08:17:06.898Z,19.63
2019-05-01T08:19:42.850Z,21.23
2019-05-01T08:22:13.177Z,25.30
2019-05-01T08:24:41.629Z,20.43
2019-05-01T08:27:15.632Z,20.07
2019-05-01T08:30:00.164Z,20.20
2019-05-01T08:32:38.931Z,19.70
2019-05-01T08:35:09.066Z,22.17
2019-05-01T08:37:37.602Z,24.33
2019-05-01T08:40:07.263Z,20.17
2019-05-01T08:42:37.744Z,21.67
2019-05-01T08:45:24.525Z,19.77
2019-05-01T08:47:56.803Z,18.10
2019-05-01T08:50:25.974Z,19.87
2019-05-01T08:52:54.767Z,19.87
2019-05-01T08:55:23.311Z,21.67
2019-05-01T08:57:51.874Z,21.87
2019-05-01T09:00:20.778Z,21.40
2019-05-01T09:02:49.305Z,21.50
2019-05-01T09:05:28.398Z,20.87
2019-05-01T09:07:51.332Z,21.67
2019-05-01T09:10:21.585Z,20.77
2019-05-01T09:12:51.714Z,21.03
2019-05-01T09:15:19.051Z,22.57
2019-05-01T09:17:47.524Z,25.47
2019-05-01T09:20:16.799Z,23.60
2019-05-01T09:22:45.565Z,20.70
2019-05-01T09:25:16.207Z,23.33
2019-05-01T09:27:55.458Z,21.70
2019-05-01T09:30:28.825Z,22.73
2019-05-01T09:32:57.554Z,25.80
2019-05-01T09:35:26.602Z,22.00
2019-05-01T09:37:55.312Z,23.07
2019-05-01T09:40:23.791Z,26.17
2019-05-01T09:42:59.489Z,22.10
2019-05-01T09:45:28.752Z,23.40
2019-05-01T09:47:57.330Z,23.00
2019-05-01T09:50:30.323Z,24.57
2019-05-01T09:53:10.395Z,27.37
2019-05-01T09:55:58.669Z,23.13
2019-05-01T09:58:27.173Z,22.07
2019-05-01T10:00:57.347Z,24.93
2019-05-01T10:03:25.914Z,27.03
2019-05-01T10:05:57.663Z,25.80
2019-05-01T10:08:26.117Z,26.27
2019-05-01T10:10:54.730Z,27.97
2019-05-01T10:13:24.190Z,27.10
2019-05-01T10:15:52.835Z,28.40
2019-05-01T10:18:40.815Z,23.37
2019-05-01T10:21:09.453Z,26.43
2019-05-01T10:23:37.921Z,25.80
2019-05-01T10:26:08.132Z,27.80
2019-05-01T10:28:45.209Z,27.80
2019-05-01T10:31:13.230Z,24.50
2019-05-01T10:33:43.455Z,24.37
2019-05-01T10:36:31.947Z,27.63
2019-05-01T10:39:00.493Z,23.63
2019-05-01T10:41:31.036Z,24.47
2019-05-01T10:43:59.550Z,23.80
2019-05-01T10:46:28.084Z,23.23
2019-05-01T10:48:57.477Z,24.40
2019-05-01T10:51:26.318Z,22.93
2019-05-01T10:53:54.841Z,25.80
2019-05-01T10:56:23.302Z,27.83
2019-05-01T10:58:51.840Z,25.47
2019-05-01T11:01:38.445Z,27.80
2019-05-01T11:04:07.090Z,26.93
2019-05-01T11:06:35.722Z,25.00
2019-05-01T11:09:06.334Z,25.10
2019-05-01T11:11:35.084Z,25.07
2019-05-01T11:14:03.798Z,26.03
2019-05-01T11:16:32.413Z,26.57
2019-05-01T11:19:01.057Z,27.33
2019-05-01T11:21:30.022Z,24.27
2019-05-01T11:23:58.597Z,22.77
2019-05-01T11:26:29.853Z,25.43
2019-05-01T11:28:58.390Z,23.20
2019-05-01T11:31:46.925Z,21.70
2019-05-01T11:34:17.112Z,23.63
2019-05-01T11:36:50.003Z,25.73
2019-05-01T11:39:54.861Z,27.20
2019-05-01T11:42:24.007Z,27.57
2019-05-01T11:44:52.582Z,25.70
2019-05-01T11:47:21.187Z,25.23
2019-05-01T11:49:49.785Z,24.27
2019-05-01T11:52:18.257Z,24.40
2019-05-01T11:54:46.860Z,23.97
2019-05-01T11:57:15.388Z,26.40
2019-05-01T11:59:43.855Z,23.07
2019-05-01T12:02:12.431Z,25.53
2019-05-01T12:04:40.934Z,20.50
2019-05-01T12:07:09.385Z,23.03
2019-05-01T12:09:37.984Z,22.30
2019-05-01T12:12:08.167Z,22.03
2019-05-01T12:14:36.682Z,20.40
2019-05-01T12:17:09.714Z,22.47
2019-05-01T12:19:38.177Z,22.60
2019-05-01T12:22:06.811Z,22.67
2019-05-01T12:24:35.572Z,23.40
2019-05-01T12:27:04.191Z,24.20
2019-05-01T12:29:32.743Z,22.67
2019-05-01T12:32:01.318Z,22.67
2019-05-01T12:34:29.783Z,24.90
2019-05-01T12:37:18.032Z,23.53
2019-05-01T12:39:46.665Z,21.03
2019-05-01T12:42:17.021Z,26.43
2019-05-01T12:44:45.571Z,19.93
2019-05-01T12:47:18.429Z,20.93
2019-05-01T12:49:48.663Z,21.97
2019-05-01T12:52:21.404Z,20.87
2019-05-01T12:54:57.336Z,20.53
2019-05-01T12:57:25.870Z,18.87
2019-05-01T13:00:07.892Z,20.23
2019-05-01T13:02:25.336Z,20.33
2019-05-01T13:04:53.868Z,18.47
2019-05-01T13:07:22.693Z,19.60
2019-05-01T13:10:11.001Z,20.10
2019-05-01T13:12:39.690Z,23.37
2019-05-01T13:15:08.508Z,23.40
2019-05-01T13:17:37.010Z,22.07
2019-05-01T13:20:08.720Z,19.73
2019-05-01T13:22:37.186Z,20.60
2019-05-01T13:25:06.823Z,21.07
2019-05-01T13:27:53.746Z,21.47
2019-05-01T13:30:40.274Z,21.57
2019-05-01T13:33:08.748Z,20.77
2019-05-01T13:35:37.348Z,19.50
2019-05-01T13:38:06.008Z,23.07
2019-05-01T13:40:34.621Z,23.70
2019-05-01T13:43:03.172Z,20.43
2019-05-01T13:45:52.649Z,20.33
2019-05-01T13:48:21.132Z,18.70
2019-05-01T13:50:49.754Z,22.57
2019-05-01T13:53:18.497Z,20.07
2019-05-01T13:55:46.964Z,19.10
2019-05-01T13:58:15.439Z,18.80
2019-05-01T14:00:44.187Z,21.97
2019-05-01T14:03:12.774Z,23.20
2019-05-01T14:05:41.313Z,21.93
2019-05-01T14:08:09.905Z,21.50
2019-05-01T14:10:38.439Z,22.30
2019-05-01T14:13:09.705Z,19.07
2019-05-01T14:15:38.224Z,20.80
2019-05-01T14:18:06.763Z,19.97
2019-05-01T14:20:48.823Z,19.97
2019-05-01T14:23:35.346Z,23.60
2019-05-01T14:26:05.335Z,24.17
2019-05-01T14:28:35.072Z,20.83
2019-05-01T14:31:04.235Z,19.70
2019-05-01T14:33:33.339Z,21.37
2019-05-01T14:36:01.872Z,20.30
2019-05-01T14:38:30.347Z,20.00
2019-05-01T14:40:58.990Z,19.60
2019-05-01T14:43:27.546Z,20.70
2019-05-01T14:45:56.175Z,22.80
2019-05-01T14:48:24.754Z,19.03
2019-05-01T14:50:53.215Z,17.90
2019-05-01T14:53:21.680Z,19.90
2019-05-01T14:55:50.268Z,20.93
2019-05-01T14:58:18.890Z,21.07
2019-05-01T15:00:47.490Z,24.83
2019-05-01T15:03:15.986Z,18.70
2019-05-01T15:05:44.510Z,21.50
2019-05-01T15:08:12.971Z,22.23
2019-05-01T15:10:41.567Z,20.00
2019-05-01T15:13:32.774Z,22.87
2019-05-01T15:16:05.065Z,20.43
2019-05-01T15:18:50.242Z,16.77
2019-05-01T15:21:18.865Z,21.07
2019-05-01T15:23:53.723Z,19.67
2019-05-01T15:26:17.590Z,19.00
2019-05-01T15:28:46.160Z,16.93
2019-05-01T15:31:14.646Z,21.43
2019-05-01T15:33:43.228Z,20.37
2019-05-01T15:36:11.787Z,20.10
2019-05-01T15:38:40.265Z,19.33
2019-05-01T15:41:22.261Z,18.80
2019-05-01T15:43:55.332Z,21.23
2019-05-01T15:46:23.865Z,22.00
2019-05-01T15:48:52.444Z,19.83
2019-05-01T15:51:20.999Z,19.17
2019-05-01T15:53:49.651Z,21.30
2019-05-01T15:56:18.229Z,19.50
2019-05-01T15:58:46.741Z,19.43
2019-05-01T16:01:15.280Z,23.53
2019-05-01T16:03:43.851Z,17.97
2019-05-01T16:06:12.318Z,19.43
2019-05-01T16:08:40.808Z,22.17
2019-05-01T16:11:27.151Z,16.70
2019-05-01T16:13:55.679Z,19.17
2019-05-01T16:16:24.287Z,18.77
2019-05-01T16:18:52.860Z,19.57
2019-05-01T16:21:21.330Z,21.63
2019-05-01T16:23:49.938Z,17.57
2019-05-01T16:26:18.463Z,19.23
2019-05-01T16:28:47.067Z,21.77
2019-05-01T16:31:15.580Z,17.00
2019-05-01T16:33:44.140Z,19.50
2019-05-01T16:36:13.037Z,18.73
2019-05-01T16:38:52.617Z,17.80
2019-05-01T16:41:21.570Z,19.60
2019-05-01T16:43:50.240Z,18.07
2019-05-01T16:46:18.802Z,18.57
2019-05-01T16:48:47.611Z,18.90
2019-05-01T16:51:16.249Z,21.90
2019-05-01T16:53:44.994Z,19.77
2019-05-01T16:56:14.036Z,17.37
2019-05-01T16:58:42.893Z,17.83
2019-05-01T17:01:13.382Z,16.47
2019-05-01T17:03:46.543Z,16.47
2019-05-01T17:06:19.316Z,18.23
2019-05-01T17:08:55.267Z,15.73
2019-05-01T17:11:28.899Z,19.80
2019-05-01T17:13:57.603Z,16.57
2019-05-01T17:16:26.392Z,15.43
2019-05-01T17:18:54.893Z,19.63
2019-05-01T17:21:23.362Z,17.73
2019-05-01T17:23:52.045Z,16.30
2019-05-01T17:26:21.291Z,14.27
2019-05-01T17:28:49.839Z,17.03
2019-05-01T17:31:18.322Z,16.10
2019-05-01T17:33:50.949Z,19.53
2019-05-01T17:36:17.252Z,15.53
2019-05-01T17:38:49.786Z,18.27
2019-05-01T17:41:16.143Z,16.67
2019-05-01T17:43:48.987Z,15.27
2019-05-01T17:46:14.953Z,15.93
2019-05-01T17:49:09.408Z,15.90
2019-05-01T17:51:35.741Z,19.27
2019-05-01T17:54:04.495Z,18.37
2019-05-01T17:56:33.011Z,20.50
2019-05-01T17:59:01.521Z,19.90
2019-05-01T18:01:46.784Z,22.00
2019-05-01T18:04:17.027Z,17.57
2019-05-01T18:06:48.029Z,23.53
2019-05-01T18:09:17.554Z,15.27
2019-05-01T18:11:47.307Z,19.47
2019-05-01T18:14:16.373Z,19.73
2019-05-01T18:16:44.965Z,20.53
2019-05-01T18:19:13.506Z,21.40
2019-05-01T18:21:46.739Z,16.97
2019-05-01T18:24:31.871Z,17.30
2019-05-01T18:27:02.149Z,16.70
2019-05-01T18:29:35.521Z,19.33
2019-05-01T18:32:08.221Z,25.47
2019-05-01T18:34:37.927Z,16.83
2019-05-01T18:37:22.025Z,16.63
2019-05-01T18:39:51.717Z,16.27
2019-05-01T18:42:20.568Z,16.37
2019-05-01T18:44:49.212Z,19.70
2019-05-01T18:47:17.900Z,15.67
2019-05-01T18:49:46.431Z,18.83
2019-05-01T18:52:15.267Z,19.03
2019-05-01T18:54:43.958Z,19.93
2019-05-01T18:57:12.626Z,18.13
2019-05-01T18:59:41.363Z,16.73
2019-05-01T19:02:10.027Z,15.43
2019-05-01T19:04:38.629Z,17.40
2019-05-01T19:07:07.444Z,22.13
2019-05-01T19:09:36.839Z,16.10
2019-05-01T19:12:10.252Z,16.67
2019-05-01T19:14:38.872Z,14.53
2019-05-01T19:17:07.402Z,17.07
2019-05-01T19:19:35.951Z,14.37
2019-05-01T19:22:05.950Z,18.70
2019-05-01T19:24:38.437Z,14.67
2019-05-01T19:27:05.149Z,18.70
2019-05-01T19:29:33.946Z,15.73
2019-05-01T19:32:02.824Z,15.43
2019-05-01T19:34:31.335Z,17.73
2019-05-01T19:37:00.033Z,13.07
2019-05-01T19:39:28.650Z,18.43
2019-05-01T19:41:57.257Z,18.57
2019-05-01T19:44:26.054Z,16.43
2019-05-01T19:46:54.735Z,17.40
2019-05-01T19:49:24.746Z,15.87
2019-05-01T19:51:55.598Z,15.73
2019-05-01T19:54:28.088Z,13.13
2019-05-01T19:56:54.173Z,15.80
2019-05-01T19:59:22.817Z,14.93
2019-05-01T20:01:51.277Z,13.23
2019-05-01T20:04:19.813Z,13.30
2019-05-01T20:06:48.478Z,14.90
2019-05-01T20:09:17.585Z,11.80
2019-05-01T20:11:46.216Z,10.50
2019-05-01T20:14:16.283Z,11.27
2019-05-01T20:16:44.888Z,11.53
2019-05-01T20:19:13.836Z,10.70
2019-05-01T20:21:42.480Z,10.70
2019-05-01T20:24:11.093Z,11.17
2019-05-01T20:26:39.724Z,14.80
2019-05-01T20:29:08.392Z,11.47
2019-05-01T20:31:37.000Z,11.97
2019-05-01T20:34:05.624Z,9.63
2019-05-01T20:36:34.215Z,13.33
2019-05-01T20:39:04.415Z,10.30
2019-05-01T20:41:33.110Z,10.77
2019-05-01T20:44:01.694Z,11.40
2019-05-01T20:46:30.307Z,10.07
2019-05-01T20:49:01.450Z,8.63
2019-05-01T20:51:29.072Z,10.57
2019-05-01T20:53:57.529Z,10.40
2019-05-01T20:56:39.811Z,12.30
2019-05-01T20:59:08.344Z,9.17
2019-05-01T21:01:36.957Z,9.70
2019-05-01T21:04:23.641Z,10.60
2019-05-01T21:07:15.626Z,10.07
2019-05-01T21:09:47.576Z,9.40
2019-05-01T21:12:14.355Z,13.17
2019-05-01T21:14:45.273Z,10.17
2019-05-01T21:17:13.654Z,13.27
2019-05-01T21:19:44.099Z,11.37
2019-05-01T21:22:14.244Z,10.13
2019-05-01T21:24:44.337Z,9.77
2019-05-01T21:27:13.377Z,10.97
2019-05-01T21:29:42.057Z,10.93
2019-05-01T21:32:10.566Z,12.87
2019-05-01T21:34:39.049Z,10.60
2019-05-01T21:37:07.533Z,10.27
2019-05-01T21:39:36.976Z,9.70
2019-05-01T21:42:11.416Z,9.33
2019-05-01T21:44:35.707Z,12.63
2019-05-01T21:47:04.213Z,10.93
2019-05-01T21:49:33.345Z,9.73
2019-05-01T21:52:03.756Z,12.30
2019-05-01T21:54:32.334Z,8.73
2019-05-01T21:57:00.788Z,11.93
2019-05-01T21:59:29.291Z,10.27
2019-05-01T22:01:57.836Z,8.37
2019-05-01T22:04:27.811Z,8.03
2019-05-01T22:06:56.664Z,10.37
2019-05-01T22:09:25.985Z,12.93
2019-05-01T22:11:54.585Z,10.10
2019-05-01T22:14:31.106Z,9.67
2019-05-01T22:16:58.780Z,13.00
2019-05-01T22:19:28.956Z,9.63
2019-05-01T22:21:59.731Z,8.30
2019-05-01T22:24:48.310Z,8.00
2019-05-01T22:27:18.477Z,9.03
2019-05-01T22:29:51.607Z,8.50
2019-05-01T22:32:21.927Z,10.93
2019-05-01T22:34:54.974Z,11.80
2019-05-01T22:37:23.880Z,9.63
2019-05-01T22:39:57.031Z,9.30
2019-05-01T22:42:25.690Z,10.47
2019-05-01T22:44:54.333Z,11.73
2019-05-01T22:47:23.022Z,11.53
2019-05-01T22:49:51.568Z,8.93
2019-05-01T22:52:20.182Z,8.53
2019-05-01T22:54:49.997Z,9.77
2019-05-01T22:57:20.295Z,11.83
2019-05-01T22:59:49.016Z,11.50
2019-05-01T23:02:19.245Z,8.13
2019-05-01T23:04:48.327Z,11.63
2019-05-01T23:07:18.589Z,12.10
2019-05-01T23:09:47.120Z,8.80
2019-05-01T23:12:15.857Z,9.40
2019-05-01T23:14:45.140Z,8.07
2019-05-01T23:17:27.511Z,10.00
2019-05-01T23:19:58.935Z,6.27
2019-05-01T23:22:26.273Z,7.27
2019-05-01T23:24:54.767Z,7.40
2019-05-01T23:27:24.346Z,8.87
2019-05-01T23:29:53.419Z,7.63
2019-05-01T23:32:21.915Z,8.23
2019-05-01T23:34:50.357Z,12.03
2019-05-01T23:37:18.827Z,7.10
2019-05-01T23:39:47.325Z,6.77
2019-05-01T23:42:15.926Z,8.10
2019-05-01T23:44:44.447Z,11.47
2019-05-01T23:47:13.026Z,7.53
2019-05-01T23:49:41.536Z,9.60
2019-05-01T23:52:10.069Z,9.77
2019-05-01T23:54:38.549Z,7.93
2019-05-01T23:57:07.159Z,6.37
2019-05-01T23:59:35.628Z,9.93
